Time;durP1;ratioP1;P1;durP2;ratioP2;P2;SDS_P1;SDS_P2;PMS_P1;PMS_P2;Temp;Humidity;BMP_temperature;BMP_pressure;BME280_temperature;BME280_humidity;BME280_pressure;Samples;Min_cycle;Max_cycle;Signal;HPM_P1;HPM_P2
2023/08/07 00:01:44;;;;;;;5.32;1.80;;;18.80;92.40;;;;;;6184274;23;20001;-83
2023/08/07 00:04:10;;;;;;;4.05;1.90;;;18.80;92.40;;;;;;6183814;23;20006;-83
2023/08/07 00:06:35;;;;;;;4.65;2.00;;;18.80;92.50;;;;;;6186833;23;20037;-86
2023/08/07 00:09:01;;;;;;;3.55;1.88;;;18.80;92.50;;;;;;6207705;23;20001;-86
2023/08/07 00:11:28;;;;;;;3.92;1.70;;;18.80;92.50;;;;;;6206229;23;20001;-87
2023/08/07 00:13:54;;;;;;;4.53;1.80;;;18.80;92.60;;;;;;6207112;23;20009;-85
2023/08/07 00:16:19;;;;;;;3.75;1.75;;;18.80;92.60;;;;;;6205522;23;20008;-85
2023/08/07 00:18:45;;;;;;;3.53;1.60;;;18.80;92.50;;;;;;6204396;23;19997;-84
2023/08/07 00:21:10;;;;;;;4.07;1.60;;;18.70;92.60;;;;;;6204241;23;20024;-83
2023/08/07 00:23:36;;;;;;;4.20;1.70;;;18.70;92.60;;;;;;6205235;23;20020;-84
2023/08/07 00:26:01;;;;;;;4.07;1.88;;;18.70;92.50;;;;;;6204238;23;20448;-83
2023/08/07 00:28:28;;;;;;;4.63;2.08;;;18.70;92.50;;;;;;6203033;23;20005;-85
2023/08/07 00:30:53;;;;;;;3.40;1.40;;;18.70;92.50;;;;;;6205568;23;20032;-86
2023/08/07 00:33:19;;;;;;;3.75;1.60;;;18.70;92.50;;;;;;6208459;23;19989;-86
2023/08/07 00:35:44;;;;;;;3.55;1.70;;;18.70;92.60;;;;;;6205026;23;20494;-86
2023/08/07 00:38:10;;;;;;;4.07;1.70;;;18.70;92.60;;;;;;6205052;23;20004;-85
2023/08/07 00:40:39;;;;;;;3.25;1.65;;;18.70;92.60;;;;;;6206316;23;20016;-85
2023/08/07 00:43:05;;;;;;;3.97;2.00;;;18.70;92.60;;;;;;6205768;23;20111;-85
2023/08/07 00:45:37;;;;;;;4.05;1.70;;;18.70;92.40;;;;;;6203300;23;19989;-84
2023/08/07 00:48:03;;;;;;;3.83;1.70;;;18.70;92.60;;;;;;6204304;23;20012;-85
2023/08/07 00:50:29;;;;;;;3.55;1.27;;;18.70;92.60;;;;;;6228729;23;20028;-83
2023/08/07 00:52:55;;;;;;;4.40;1.95;;;18.70;92.50;;;;;;6201593;23;20005;-85
2023/08/07 00:55:21;;;;;;;3.95;1.80;;;18.70;92.60;;;;;;6203009;23;20112;-86
2023/08/07 00:57:46;;;;;;;3.30;1.50;;;18.70;92.60;;;;;;6202754;23;20475;-83
2023/08/07 01:00:14;;;;;;;3.60;1.50;;;18.70;92.60;;;;;;6198604;23;20494;-84
2023/08/07 01:02:39;;;;;;;4.47;1.67;;;18.70;92.50;;;;;;6201314;23;20004;-83
2023/08/07 01:05:05;;;;;;;4.15;1.83;;;18.80;92.50;;;;;;6200491;23;19993;-83
2023/08/07 01:07:30;;;;;;;3.97;1.60;;;18.80;92.50;;;;;;6202417;23;20004;-84
2023/08/07 01:09:57;;;;;;;4.10;1.77;;;18.80;92.40;;;;;;6200207;23;20001;-85
2023/08/07 01:12:30;;;;;;;3.40;1.80;;;18.80;92.40;;;;;;6200617;23;20021;-86
2023/08/07 01:15:07;;;;;;;3.15;1.40;;;18.80;92.30;;;;;;6198038;23;20009;-83
2023/08/07 01:17:34;;;;;;;2.53;1.58;;;18.80;92.30;;;;;;6198975;23;20068;-84
2023/08/07 01:20:00;;;;;;;3.72;1.83;;;18.80;92.30;;;;;;6199771;23;20004;-84
2023/08/07 01:22:26;;;;;;;2.20;1.40;;;18.80;92.30;;;;;;6198510;23;20489;-83
2023/08/07 01:24:51;;;;;;;3.60;1.50;;;18.80;92.20;;;;;;6196260;23;20048;-83
2023/08/07 01:27:17;;;;;;;3.33;1.38;;;18.80;92.20;;;;;;6196056;23;20008;-83
2023/08/07 01:29:57;;;;;;;3.28;1.60;;;18.80;92.30;;;;;;6195720;23;20095;-83
2023/08/07 01:33:07;;;;;;;3.88;1.58;;;18.80;92.30;;;;;;6195197;23;20005;-83
2023/08/07 01:35:38;;;;;;;4.13;1.65;;;18.70;92.40;;;;;;6155834;23;20011;-84
2023/08/07 01:38:05;;;;;;;3.85;1.60;;;18.70;92.50;;;;;;6194470;23;20313;-83
2023/08/07 01:40:31;;;;;;;2.78;1.60;;;18.70;92.50;;;;;;6218700;23;20044;-83
2023/08/07 01:42:58;;;;;;;4.95;1.60;;;18.70;92.60;;;;;;6194708;23;20005;-84
2023/08/07 01:45:27;;;;;;;3.75;1.70;;;18.70;92.60;;;;;;6216945;23;19985;-83
2023/08/07 01:47:53;;;;;;;3.53;1.70;;;18.70;92.60;;;;;;6191259;23;20005;-83
2023/08/07 01:50:23;;;;;;;3.65;1.70;;;18.70;92.60;;;;;;6193589;23;20001;-83
2023/08/07 01:52:48;;;;;;;4.05;1.67;;;18.60;92.50;;;;;;6192349;23;20517;-83
2023/08/07 01:55:18;;;;;;;2.40;1.40;;;18.70;92.60;;;;;;6191114;23;20036;-83
2023/08/07 01:57:44;;;;;;;3.65;1.60;;;18.70;92.60;;;;;;6194195;23;20001;-84
2023/08/07 02:00:10;;;;;;;4.35;1.88;;;18.70;92.60;;;;;;6191462;23;20001;-84
2023/08/07 02:02:36;;;;;;;3.35;1.40;;;18.70;92.60;;;;;;6196703;23;20008;-83
2023/08/07 02:05:03;;;;;;;3.42;1.55;;;18.60;92.50;;;;;;6190356;23;20028;-83
2023/08/07 02:07:28;;;;;;;2.80;1.40;;;18.60;92.50;;;;;;6189933;23;20428;-83
2023/08/07 02:09:54;;;;;;;3.65;1.58;;;18.60;92.50;;;;;;6190296;23;20001;-83
2023/08/07 02:12:19;;;;;;;3.05;1.42;;;18.60;92.50;;;;;;6190736;23;20080;-84
2023/08/07 02:14:45;;;;;;;2.78;1.60;;;18.60;92.50;;;;;;6190318;23;20448;-83
2023/08/07 02:17:10;;;;;;;4.07;1.70;;;18.60;92.50;;;;;;6189354;23;20001;-83
2023/08/07 02:19:36;;;;;;;4.35;1.80;;;18.60;92.50;;;;;;6188697;23;19997;-85
2023/08/07 02:22:02;;;;;;;3.25;1.50;;;18.60;92.50;;;;;;6191756;23;20023;-83
2023/08/07 02:24:27;;;;;;;3.28;1.42;;;18.60;92.50;;;;;;6191436;23;20005;-83
2023/08/07 02:26:53;;;;;;;2.90;1.50;;;18.60;92.50;;;;;;6190841;23;20024;-84
2023/08/07 02:29:18;;;;;;;3.47;1.77;;;18.60;92.50;;;;;;6184485;23;20005;-84
2023/08/07 02:31:44;;;;;;;4.40;1.50;;;18.60;92.50;;;;;;6187069;23;20005;-82
2023/08/07 02:34:09;;;;;;;3.65;1.60;;;18.60;92.40;;;;;;6186395;23;20005;-83
2023/08/07 02:36:35;;;;;;;2.50;1.48;;;18.70;92.40;;;;;;6187375;23;20005;-84
2023/08/07 02:39:01;;;;;;;3.00;1.60;;;18.70;92.40;;;;;;6187262;23;20008;-83
2023/08/07 02:41:26;;;;;;;2.30;1.42;;;18.70;92.30;;;;;;6186155;23;20005;-83
2023/08/07 02:43:51;;;;;;;3.25;1.48;;;18.70;92.30;;;;;;6186220;23;20023;-83
2023/08/07 02:46:17;;;;;;;3.58;1.50;;;18.70;92.20;;;;;;6187372;23;20012;-83
2023/08/07 02:48:45;;;;;;;4.13;1.60;;;18.70;92.20;;;;;;6187480;23;20009;-83
2023/08/07 02:51:11;;;;;;;2.75;1.40;;;18.70;92.20;;;;;;6186717;23;20005;-83
2023/08/07 02:53:36;;;;;;;3.13;1.58;;;18.70;92.20;;;;;;6186250;23;20039;-83
2023/08/07 02:56:02;;;;;;;3.10;1.52;;;18.80;92.20;;;;;;6186900;23;19998;-83
2023/08/07 02:58:28;;;;;;;3.38;1.30;;;18.70;92.10;;;;;;6186121;23;20024;-83
2023/08/07 03:00:53;;;;;;;2.67;1.30;;;18.70;92.10;;;;;;6185096;23;20005;-83
2023/08/07 03:03:19;;;;;;;2.22;1.40;;;18.70;92.20;;;;;;6186140;23;20001;-84
2023/08/07 03:05:51;;;;;;;3.25;1.48;;;18.70;92.20;;;;;;6185402;23;20097;-82
2023/08/07 03:08:17;;;;;;;3.58;1.35;;;18.70;92.20;;;;;;6185871;23;20352;-83
2023/08/07 03:10:51;;;;;;;4.40;1.63;;;18.70;92.20;;;;;;6185694;23;20009;-83
2023/08/07 03:13:16;;;;;;;3.83;1.70;;;18.60;92.30;;;;;;6185579;23;20005;-83
2023/08/07 03:15:42;;;;;;;2.00;1.20;;;18.70;92.40;;;;;;6186405;23;20001;-83
2023/08/07 03:18:07;;;;;;;4.25;1.75;;;18.60;92.40;;;;;;6186524;23;20090;-84
2023/08/07 03:20:35;;;;;;;3.47;1.60;;;18.60;92.40;;;;;;6184530;23;20009;-83
2023/08/07 03:23:01;;;;;;;3.83;1.63;;;18.70;92.40;;;;;;6187292;23;20001;-83
2023/08/07 03:25:26;;;;;;;2.97;1.58;;;18.60;92.40;;;;;;6181459;23;20016;-84
2023/08/07 03:27:52;;;;;;;3.45;1.58;;;18.60;92.40;;;;;;6181110;23;20494;-84
2023/08/07 03:30:20;;;;;;;3.40;1.50;;;18.60;92.40;;;;;;6189444;23;20024;-83
2023/08/07 03:32:46;;;;;;;4.25;2.10;;;18.60;92.40;;;;;;6191482;23;20015;-84
2023/08/07 03:35:11;;;;;;;3.40;1.70;;;18.60;92.40;;;;;;6190540;23;20005;-83
2023/08/07 03:37:37;;;;;;;3.22;1.50;;;18.60;92.40;;;;;;6194400;23;20012;-84
2023/08/07 03:40:06;;;;;;;3.13;1.60;;;18.60;92.40;;;;;;6191526;23;20155;-84
2023/08/07 03:42:31;;;;;;;3.28;1.70;;;18.60;92.40;;;;;;6190596;23;20016;-84
2023/08/07 03:44:57;;;;;;;3.90;1.90;;;18.60;92.40;;;;;;6190914;23;20444;-82
2023/08/07 03:47:23;;;;;;;2.97;1.48;;;18.60;92.40;;;;;;6200159;23;20013;-82
2023/08/07 03:49:49;;;;;;;4.10;1.80;;;18.60;92.40;;;;;;6197630;23;20059;-84
2023/08/07 03:52:15;;;;;;;4.07;1.75;;;18.60;92.40;;;;;;6198029;23;20036;-85
2023/08/07 03:55:06;;;;;;;3.80;1.83;;;18.60;92.30;;;;;;6198800;23;19989;-85
2023/08/07 03:58:30;;;;;;;2.75;1.60;;;18.60;92.30;;;;;;6198397;23;20444;-84
2023/08/07 04:01:34;;;;;;;3.60;1.85;;;18.60;92.30;;;;;;6220454;23;20047;-85
2023/08/07 04:07:01;;;;;;;3.00;1.52;;;18.50;92.30;;;;;;6193925;23;20037;-82
2023/08/07 04:09:26;;;;;;;2.88;1.48;;;18.90;92.40;;;;;;6195231;23;20009;-85
2023/08/07 04:11:52;;;;;;;3.55;1.80;;;18.60;92.30;;;;;;6202257;23;20005;-83
2023/08/07 04:14:18;;;;;;;3.92;1.70;;;19.20;92.40;;;;;;6196014;23;20009;-84
2023/08/07 04:16:43;;;;;;;2.88;1.73;;;18.80;92.20;;;;;;6194330;23;20027;-82
2023/08/07 04:19:09;;;;;;;3.58;1.70;;;19.10;92.30;;;;;;6191033;23;20043;-81
2023/08/07 04:21:34;;;;;;;3.28;1.55;;;18.60;92.10;;;;;;6193574;23;20008;-81
2023/08/07 04:24:00;;;;;;;4.68;1.70;;;19.50;92.30;;;;;;6191830;23;20005;-83
2023/08/07 04:26:26;;;;;;;4.05;1.60;;;19.50;92.30;;;;;;6192400;23;19993;-81
2023/08/07 04:28:52;;;;;;;3.85;1.55;;;20.20;92.40;;;;;;6191269;23;20470;-82
2023/08/07 04:31:17;;;;;;;2.95;1.60;;;19.80;92.30;;;;;;6192730;23;20009;-81
2023/08/07 04:33:43;;;;;;;4.40;1.70;;;18.70;92.00;;;;;;6193004;23;20331;-80
2023/08/07 04:36:08;;;;;;;3.72;1.70;;;19.30;92.20;;;;;;6192971;23;20005;-81
2023/08/07 04:38:34;;;;;;;4.18;1.73;;;18.70;92.10;;;;;;6195837;23;20009;-80
2023/08/07 04:40:59;;;;;;;3.42;1.92;;;18.80;91.90;;;;;;6190727;23;20379;-82
2023/08/07 04:43:25;;;;;;;3.83;1.60;;;18.60;92.00;;;;;;6189227;23;20281;-79
2023/08/07 04:45:51;;;;;;;3.67;1.73;;;18.60;92.00;;;;;;6190499;23;20059;-80
2023/08/07 04:48:17;;;;;;;2.72;1.70;;;18.60;92.20;;;;;;6190557;23;20021;-80
2023/08/07 04:50:43;;;;;;;3.80;1.80;;;18.70;92.30;;;;;;6190819;23;20013;-80
2023/08/07 04:53:08;;;;;;;3.45;1.80;;;18.60;92.30;;;;;;6190670;23;20011;-81
2023/08/07 04:55:34;;;;;;;3.78;1.60;;;18.60;92.30;;;;;;6189303;23;20096;-80
2023/08/07 04:58:00;;;;;;;3.08;1.70;;;18.60;92.30;;;;;;6191342;23;20019;-81
2023/08/07 05:00:25;;;;;;;3.42;1.55;;;18.50;92.30;;;;;;6189035;23;20013;-81
2023/08/07 05:02:51;;;;;;;4.50;1.83;;;18.60;92.30;;;;;;6191708;23;20001;-80
2023/08/07 05:05:20;;;;;;;3.05;1.73;;;18.50;92.30;;;;;;6189303;23;20035;-80
2023/08/07 05:07:46;;;;;;;2.97;1.48;;;18.40;92.30;;;;;;6188168;23;20361;-79
2023/08/07 05:10:12;;;;;;;3.45;1.67;;;18.50;92.30;;;;;;6213157;23;20564;-82
2023/08/07 05:12:37;;;;;;;3.10;1.80;;;18.50;92.30;;;;;;6191496;23;20372;-82
2023/08/07 05:15:03;;;;;;;3.50;1.75;;;18.50;92.30;;;;;;6188348;23;20009;-81
2023/08/07 05:17:28;;;;;;;3.88;1.70;;;18.50;92.00;;;;;;6187252;23;20033;-78
2023/08/07 05:19:54;;;;;;;4.50;1.77;;;18.50;92.20;;;;;;6186224;23;20155;-80
2023/08/07 05:22:25;;;;;;;3.65;1.70;;;18.50;92.20;;;;;;6189224;23;20041;-80
2023/08/07 05:24:51;;;;;;;4.82;1.80;;;18.50;92.10;;;;;;6186277;23;20351;-81
2023/08/07 05:27:16;;;;;;;3.65;1.65;;;18.50;92.00;;;;;;6187935;23;20028;-81
2023/08/07 05:29:45;;;;;;;3.92;1.83;;;18.50;92.00;;;;;;6186935;23;20009;-80
2023/08/07 05:32:14;;;;;;;4.45;2.08;;;18.60;92.00;;;;;;6190342;23;20012;-80
2023/08/07 05:34:40;;;;;;;3.05;1.60;;;18.60;91.90;;;;;;6189437;23;20005;-82
2023/08/07 05:37:07;;;;;;;4.30;2.00;;;18.60;92.00;;;;;;6191454;23;20094;-80
2023/08/07 05:39:34;;;;;;;4.57;1.92;;;18.50;91.90;;;;;;6190223;23;19997;-80
2023/08/07 05:42:00;;;;;;;5.20;1.90;;;18.50;91.90;;;;;;6189348;23;20001;-80
2023/08/07 05:44:25;;;;;;;3.22;1.70;;;18.60;92.10;;;;;;6188891;23;20015;-82
2023/08/07 05:46:51;;;;;;;4.25;1.60;;;18.60;91.90;;;;;;6190340;23;20012;-80
2023/08/07 05:49:17;;;;;;;3.40;1.77;;;18.60;91.80;;;;;;6189165;23;20009;-80
2023/08/07 05:51:42;;;;;;;5.03;1.83;;;18.60;91.80;;;;;;6189661;23;20084;-80
2023/08/07 05:54:08;;;;;;;3.88;1.60;;;18.60;91.80;;;;;;6188184;23;20021;-80
2023/08/07 05:56:34;;;;;;;3.88;1.80;;;18.60;91.70;;;;;;6188533;23;20008;-80
2023/08/07 05:58:59;;;;;;;3.58;1.58;;;18.70;91.80;;;;;;6188904;23;20001;-80
2023/08/07 06:01:30;;;;;;;3.13;1.50;;;18.60;91.70;;;;;;6190131;23;20584;-80
2023/08/07 06:03:56;;;;;;;3.00;1.53;;;18.60;91.70;;;;;;6187947;23;20013;-81
2023/08/07 06:06:21;;;;;;;3.13;1.80;;;18.60;91.70;;;;;;6186829;23;20124;-80
2023/08/07 06:08:47;;;;;;;2.75;1.60;;;18.60;91.70;;;;;;6187337;23;20008;-80
2023/08/07 06:11:12;;;;;;;3.75;1.60;;;18.60;91.80;;;;;;6186508;23;20091;-80
2023/08/07 06:13:39;;;;;;;3.45;1.70;;;18.60;91.70;;;;;;6186461;23;20009;-80
2023/08/07 06:16:06;;;;;;;3.20;1.50;;;18.60;91.80;;;;;;6186365;23;20005;-80
2023/08/07 06:18:31;;;;;;;2.70;1.50;;;18.60;91.80;;;;;;6186383;23;20001;-80
2023/08/07 06:20:57;;;;;;;3.20;1.67;;;18.60;91.80;;;;;;6187873;23;20487;-80
2023/08/07 06:23:22;;;;;;;2.53;1.50;;;18.60;91.80;;;;;;6185070;23;20011;-80
2023/08/07 06:25:48;;;;;;;3.33;1.58;;;18.50;91.80;;;;;;6185391;23;20040;-82
2023/08/07 06:28:13;;;;;;;2.67;1.40;;;18.50;91.80;;;;;;6187602;23;20005;-80
2023/08/07 06:30:39;;;;;;;3.67;1.52;;;18.50;91.80;;;;;;6185872;23;20009;-80
2023/08/07 06:33:04;;;;;;;3.42;1.60;;;18.50;91.80;;;;;;6185391;23;20001;-80
2023/08/07 06:35:30;;;;;;;3.65;1.55;;;18.50;91.80;;;;;;6187134;23;20036;-80
2023/08/07 06:37:55;;;;;;;4.10;1.52;;;18.50;91.80;;;;;;6185393;23;20005;-80
2023/08/07 06:40:21;;;;;;;3.13;1.50;;;18.50;91.80;;;;;;6186720;23;20044;-80
2023/08/07 06:42:46;;;;;;;3.55;1.42;;;18.50;91.80;;;;;;6185331;23;20005;-80
2023/08/07 06:45:12;;;;;;;2.58;1.33;;;18.50;91.80;;;;;;6184267;23;20001;-80
2023/08/07 06:47:37;;;;;;;3.67;1.60;;;18.50;91.80;;;;;;6184576;23;20064;-80
2023/08/07 06:50:03;;;;;;;2.42;1.50;;;18.50;91.80;;;;;;6184757;23;20059;-80
2023/08/07 06:52:29;;;;;;;4.10;1.80;;;18.50;91.80;;;;;;6186622;23;20001;-81
2023/08/07 06:54:54;;;;;;;2.40;1.45;;;18.50;91.70;;;;;;6183149;23;20005;-80
2023/08/07 06:57:20;;;;;;;2.22;1.30;;;18.50;91.70;;;;;;6184014;23;20084;-80
2023/08/07 06:59:45;;;;;;;3.70;1.45;;;18.50;91.70;;;;;;6186224;23;20339;-81
2023/08/07 07:02:11;;;;;;;4.15;1.50;;;18.50;91.70;;;;;;6184423;23;20029;-80
2023/08/07 07:04:37;;;;;;;2.97;1.55;;;18.50;91.70;;;;;;6185619;23;20491;-80
2023/08/07 07:07:03;;;;;;;2.97;1.30;;;18.50;91.70;;;;;;6184200;23;20009;-80
2023/08/07 07:09:29;;;;;;;3.50;1.95;;;18.50;91.70;;;;;;6183978;23;20037;-80
2023/08/07 07:11:55;;;;;;;4.35;1.55;;;18.50;91.70;;;;;;6183856;23;20020;-81
2023/08/07 07:14:21;;;;;;;3.55;1.40;;;18.50;91.70;;;;;;6183223;23;20499;-80
2023/08/07 07:16:47;;;;;;;3.38;1.50;;;18.50;91.70;;;;;;6185610;23;19997;-80
2023/08/07 07:19:12;;;;;;;3.05;1.50;;;18.50;91.70;;;;;;6183889;23;20452;-80
2023/08/07 07:21:38;;;;;;;3.28;1.33;;;18.60;91.70;;;;;;6184100;23;20100;-80
2023/08/07 07:24:04;;;;;;;3.53;1.60;;;18.60;91.70;;;;;;6184701;23;20001;-80
2023/08/07 07:26:29;;;;;;;3.60;1.50;;;18.60;91.60;;;;;;6197425;23;20062;-82
2023/08/07 07:28:55;;;;;;;3.53;1.40;;;18.60;91.60;;;;;;6201286;23;20064;-83
2023/08/07 07:31:21;;;;;;;3.33;1.50;;;18.60;91.40;;;;;;6202128;23;20008;-82
2023/08/07 07:33:46;;;;;;;3.00;1.38;;;18.60;91.40;;;;;;6199664;23;20001;-83
2023/08/07 07:36:16;;;;;;;3.35;1.70;;;18.60;91.40;;;;;;6201486;23;19997;-81
2023/08/07 07:38:42;;;;;;;3.75;1.50;;;18.70;91.40;;;;;;6224624;23;20021;-82
2023/08/07 07:41:11;;;;;;;2.15;1.35;;;18.60;91.30;;;;;;6199777;23;20001;-81
2023/08/07 07:43:37;;;;;;;3.15;1.27;;;18.60;91.30;;;;;;6201243;23;20016;-83
2023/08/07 07:46:02;;;;;;;2.78;1.40;;;18.60;91.40;;;;;;6222089;23;20013;-82
2023/08/07 07:48:28;;;;;;;4.07;1.55;;;18.60;91.40;;;;;;6198293;23;20469;-81
2023/08/07 07:50:59;;;;;;;3.53;1.40;;;18.60;91.40;;;;;;6202488;23;20041;-82
2023/08/07 07:53:25;;;;;;;3.75;1.30;;;18.60;91.40;;;;;;6224552;23;20010;-83
2023/08/07 07:55:50;;;;;;;3.72;1.50;;;18.60;91.50;;;;;;6198709;23;20092;-82
2023/08/07 07:58:16;;;;;;;1.92;1.23;;;18.60;91.50;;;;;;6197698;23;20005;-82
2023/08/07 08:00:42;;;;;;;2.30;1.40;;;18.60;91.50;;;;;;6201713;23;20008;-83
2023/08/07 08:03:08;;;;;;;3.53;1.60;;;18.60;91.50;;;;;;6199454;23;20466;-82
2023/08/07 08:05:34;;;;;;;2.55;1.42;;;18.60;91.50;;;;;;6198489;23;20021;-81
2023/08/07 08:08:01;;;;;;;2.75;1.38;;;18.60;91.60;;;;;;6200480;23;20020;-85
2023/08/07 08:10:27;;;;;;;3.50;1.30;;;18.60;91.50;;;;;;6202847;23;20005;-83
2023/08/07 08:12:55;;;;;;;2.63;1.20;;;18.60;91.60;;;;;;6199585;23;20352;-81
2023/08/07 08:15:21;;;;;;;3.45;1.30;;;18.60;91.60;;;;;;6223680;23;20336;-81
2023/08/07 08:17:47;;;;;;;3.65;1.40;;;18.60;91.60;;;;;;6198164;23;20041;-81
2023/08/07 08:20:18;;;;;;;2.75;1.30;;;18.60;91.60;;;;;;6200031;23;20008;-83
2023/08/07 08:22:46;;;;;;;2.85;1.30;;;18.60;91.60;;;;;;6199657;23;20009;-82
2023/08/07 08:25:12;;;;;;;4.35;1.70;;;18.70;91.70;;;;;;6196411;23;20029;-83
2023/08/07 08:27:38;;;;;;;2.60;1.30;;;18.70;91.50;;;;;;6198178;23;20004;-81
2023/08/07 08:30:04;;;;;;;1.90;1.10;;;18.70;91.50;;;;;;6195566;23;20011;-85
2023/08/07 08:32:30;;;;;;;3.03;1.42;;;18.70;91.40;;;;;;6197757;23;20547;-81
2023/08/07 08:34:55;;;;;;;2.90;1.40;;;18.80;91.40;;;;;;6195194;23;20008;-82
2023/08/07 08:37:21;;;;;;;2.75;1.30;;;18.80;91.30;;;;;;6195566;23;20001;-81
2023/08/07 08:39:47;;;;;;;3.55;1.35;;;18.80;91.20;;;;;;6193993;23;20440;-81
2023/08/07 08:42:14;;;;;;;2.90;1.50;;;18.80;91.20;;;;;;6194562;23;20056;-81
2023/08/07 08:44:40;;;;;;;2.15;1.20;;;18.80;91.20;;;;;;6195316;23;20486;-81
2023/08/07 08:47:08;;;;;;;3.42;1.65;;;18.80;91.20;;;;;;6196584;23;20013;-81
2023/08/07 08:49:38;;;;;;;3.08;1.25;;;18.80;91.20;;;;;;6195249;23;20005;-80
2023/08/07 08:52:04;;;;;;;2.33;1.15;;;18.80;91.20;;;;;;6217614;23;20009;-84
2023/08/07 08:54:30;;;;;;;3.00;1.50;;;18.80;91.20;;;;;;6194123;23;20001;-81
2023/08/07 08:56:58;;;;;;;2.70;1.23;;;18.90;91.20;;;;;;6195179;23;20080;-83
2023/08/07 08:59:24;;;;;;;2.97;1.35;;;18.90;91.10;;;;;;6190201;23;20012;-81
2023/08/07 09:01:52;;;;;;;4.65;1.38;;;18.90;91.00;;;;;;6193890;23;20049;-83
2023/08/07 09:04:18;;;;;;;3.75;1.30;;;19.00;90.90;;;;;;6193984;23;20021;-83
2023/08/07 09:06:44;;;;;;;1.40;1.08;;;19.00;90.90;;;;;;6189999;23;20005;-81
2023/08/07 09:09:12;;;;;;;3.15;1.40;;;19.00;90.80;;;;;;6190549;23;20325;-84
2023/08/07 09:11:38;;;;;;;3.00;1.50;;;19.00;90.80;;;;;;6189429;23;20080;-80
2023/08/07 09:14:04;;;;;;;3.45;1.40;;;19.00;90.80;;;;;;6189326;23;20160;-80
2023/08/07 09:16:30;;;;;;;3.63;1.40;;;19.00;90.80;;;;;;6190227;23;20091;-81
2023/08/07 09:18:56;;;;;;;2.35;1.27;;;19.00;90.80;;;;;;6190753;23;20020;-84
2023/08/07 09:21:22;;;;;;;3.78;1.40;;;19.00;90.80;;;;;;6190032;23;20001;-81
2023/08/07 09:23:47;;;;;;;3.92;1.50;;;19.00;90.70;;;;;;6190899;23;20016;-81
2023/08/07 09:26:13;;;;;;;4.30;1.48;;;19.00;90.80;;;;;;6191291;23;20005;-80
2023/08/07 09:28:38;;;;;;;3.67;1.40;;;19.00;90.80;;;;;;6191568;23;20008;-80
2023/08/07 09:31:06;;;;;;;3.20;1.50;;;19.00;90.80;;;;;;6191498;23;19997;-82
2023/08/07 09:33:32;;;;;;;3.22;1.50;;;19.00;90.90;;;;;;6189278;23;20005;-81
2023/08/07 09:35:59;;;;;;;3.40;1.30;;;18.90;91.00;;;;;;6186792;23;20079;-82
2023/08/07 09:38:29;;;;;;;3.03;1.42;;;18.90;91.00;;;;;;6187049;23;20001;-80
2023/08/07 09:40:58;;;;;;;4.20;1.50;;;18.90;91.00;;;;;;6187580;23;20440;-80
2023/08/07 09:43:23;;;;;;;4.03;1.38;;;19.00;91.00;;;;;;6187979;23;20012;-80
2023/08/07 09:45:52;;;;;;;3.10;1.35;;;19.00;91.00;;;;;;6186602;23;20001;-81
2023/08/07 09:48:25;;;;;;;2.40;1.30;;;19.00;91.00;;;;;;6186908;23;20017;-80
2023/08/07 09:50:51;;;;;;;3.42;1.40;;;19.00;91.10;;;;;;6185768;23;20012;-81
2023/08/07 09:53:16;;;;;;;4.40;1.70;;;19.00;91.10;;;;;;6186888;23;20019;-82
2023/08/07 09:55:42;;;;;;;4.32;1.38;;;19.00;91.00;;;;;;6186173;23;20041;-81
2023/08/07 09:58:11;;;;;;;3.25;1.50;;;18.90;90.90;;;;;;6187206;23;20420;-80
2023/08/07 10:00:37;;;;;;;2.60;1.30;;;19.00;90.90;;;;;;6186613;23;20032;-80
2023/08/07 10:03:04;;;;;;;2.55;1.40;;;19.00;90.90;;;;;;6186488;23;20040;-80
2023/08/07 10:05:30;;;;;;;5.15;1.58;;;19.00;90.90;;;;;;6210469;23;20016;-80
2023/08/07 10:07:56;;;;;;;3.30;1.35;;;19.00;90.80;;;;;;6185835;23;20009;-81
2023/08/07 10:10:22;;;;;;;4.05;1.38;;;19.10;90.80;;;;;;6185848;23;20001;-81
2023/08/07 10:12:49;;;;;;;3.67;1.30;;;19.10;90.70;;;;;;6185729;23;19997;-80
2023/08/07 10:15:15;;;;;;;3.85;1.40;;;19.00;90.70;;;;;;6185270;23;20313;-80
2023/08/07 10:17:41;;;;;;;3.70;1.50;;;19.10;90.80;;;;;;6186688;23;20005;-81
2023/08/07 10:20:08;;;;;;;2.58;1.30;;;19.00;90.80;;;;;;6185273;23;20486;-81
2023/08/07 10:22:38;;;;;;;2.65;1.23;;;19.00;90.80;;;;;;6210339;23;20005;-80
2023/08/07 10:25:04;;;;;;;2.83;1.40;;;19.00;90.80;;;;;;6184949;23;20428;-81
2023/08/07 10:27:33;;;;;;;2.75;1.20;;;18.90;90.80;;;;;;6185103;23;20055;-81
2023/08/07 10:30:01;;;;;;;3.92;1.33;;;19.00;90.70;;;;;;6185486;23;20092;-81
2023/08/07 10:32:27;;;;;;;3.60;1.45;;;19.00;90.70;;;;;;6186345;23;20028;-81
2023/08/07 10:34:53;;;;;;;4.13;1.50;;;19.00;90.70;;;;;;6183963;23;20005;-83
2023/08/07 10:37:42;;;;;;;3.90;1.95;;;19.00;90.60;;;;;;6184652;23;20100;-80
2023/08/07 10:40:11;;;;;;;3.13;1.40;;;19.00;90.60;;;;;;6184432;23;20011;-80
2023/08/07 10:42:51;;;;;;;4.28;1.15;;;19.10;90.50;;;;;;6185943;23;20455;-80
2023/08/07 10:45:18;;;;;;;4.97;1.52;;;19.10;90.40;;;;;;6184040;23;20005;-80
2023/08/07 10:47:43;;;;;;;3.13;1.30;;;19.10;90.30;;;;;;6186056;23;20092;-81
2023/08/07 10:50:12;;;;;;;3.67;1.40;;;19.20;90.20;;;;;;6184340;23;20048;-81
2023/08/07 10:52:41;;;;;;;2.92;1.30;;;19.20;90.20;;;;;;6184353;23;20001;-81
2023/08/07 10:55:14;;;;;;;2.75;1.17;;;19.20;90.10;;;;;;6183714;23;20008;-81
2023/08/07 10:57:40;;;;;;;3.47;1.30;;;19.20;90.00;;;;;;6208952;23;20008;-80
2023/08/07 11:00:09;;;;;;;2.50;1.20;;;19.20;90.00;;;;;;6185916;23;20081;-81
2023/08/07 11:02:39;;;;;;;2.58;1.23;;;19.20;90.10;;;;;;6184212;23;20029;-80
2023/08/07 11:05:05;;;;;;;4.45;1.40;;;19.30;90.20;;;;;;6185016;23;20317;-82
2023/08/07 11:07:31;;;;;;;4.15;1.50;;;19.20;90.50;;;;;;6190681;23;20059;-82
2023/08/07 11:09:58;;;;;;;4.28;1.40;;;19.10;90.20;;;;;;6201450;23;20009;-83
2023/08/07 11:12:28;;;;;;;4.43;1.67;;;19.10;90.30;;;;;;6200334;23;20012;-85
2023/08/07 11:14:57;;;;;;;4.68;1.55;;;19.00;90.30;;;;;;6198043;23;20005;-86
2023/08/07 11:17:26;;;;;;;3.22;1.40;;;19.00;90.30;;;;;;6199452;23;19997;-83
2023/08/07 11:19:54;;;;;;;3.38;1.33;;;19.00;90.40;;;;;;6197864;23;20001;-85
2023/08/07 11:22:19;;;;;;;3.47;1.30;;;19.00;90.50;;;;;;6199076;23;20050;-82
2023/08/07 11:24:46;;;;;;;3.33;1.40;;;18.90;90.40;;;;;;6197163;23;20008;-82
2023/08/07 11:27:12;;;;;;;3.65;1.50;;;19.00;90.40;;;;;;6198331;23;20043;-84
2023/08/07 11:29:37;;;;;;;4.45;1.58;;;19.00;90.30;;;;;;6197985;23;20001;-82
2023/08/07 11:32:03;;;;;;;4.38;1.23;;;19.00;90.30;;;;;;6202139;23;20005;-84
2023/08/07 11:34:29;;;;;;;4.88;1.50;;;19.00;90.30;;;;;;6201197;23;20005;-84
2023/08/07 11:36:55;;;;;;;2.80;1.25;;;19.10;90.30;;;;;;6201124;23;20001;-83
2023/08/07 11:39:20;;;;;;;3.97;1.40;;;19.10;90.20;;;;;;6200462;23;20001;-85
2023/08/07 11:41:47;;;;;;;5.15;1.40;;;19.10;90.10;;;;;;6200064;23;20498;-81
2023/08/07 11:44:12;;;;;;;5.43;1.92;;;19.20;90.20;;;;;;6200794;23;20340;-83
2023/08/07 11:46:38;;;;;;;3.67;1.50;;;19.20;90.10;;;;;;6198952;23;20016;-81
2023/08/07 11:49:04;;;;;;;4.80;1.73;;;19.10;90.10;;;;;;6198942;23;20019;-85
2023/08/07 11:51:30;;;;;;;3.60;1.30;;;19.10;90.00;;;;;;6197992;23;20012;-81
2023/08/07 11:53:58;;;;;;;4.57;1.80;;;19.20;90.10;;;;;;6196230;23;20331;-82
2023/08/07 11:56:24;;;;;;;4.43;1.70;;;19.20;89.60;;;;;;6198816;23;20009;-81
2023/08/07 11:58:53;;;;;;;4.13;1.80;;;19.20;90.00;;;;;;6196921;23;20008;-81
2023/08/07 12:01:24;;;;;;;3.85;1.60;;;19.10;90.20;;;;;;6199437;23;20075;-84
2023/08/07 12:03:56;;;;;;;4.80;1.77;;;19.10;89.80;;;;;;6196291;23;20329;-81
2023/08/07 12:06:23;;;;;;;3.47;1.45;;;19.20;89.80;;;;;;6195472;23;19989;-81
2023/08/07 12:08:53;;;;;;;3.75;1.40;;;19.20;89.60;;;;;;6195632;23;20016;-81
2023/08/07 12:11:20;;;;;;;3.15;1.50;;;19.20;89.40;;;;;;6194614;23;20025;-81
2023/08/07 12:13:46;;;;;;;4.07;1.77;;;19.20;89.30;;;;;;6193817;23;20013;-82
2023/08/07 12:16:16;;;;;;;3.92;1.50;;;19.20;89.20;;;;;;6197031;23;20298;-82
2023/08/07 12:18:49;;;;;;;4.68;1.58;;;19.30;89.10;;;;;;6195727;23;19993;-81
2023/08/07 12:21:19;;;;;;;3.33;1.40;;;19.30;89.10;;;;;;6192993;23;20317;-81
2023/08/07 12:23:47;;;;;;;5.15;1.70;;;19.30;89.10;;;;;;6192167;23;20003;-80
2023/08/07 12:26:13;;;;;;;4.78;1.70;;;19.20;89.20;;;;;;6195298;23;19997;-82
2023/08/07 12:28:38;;;;;;;2.97;1.30;;;19.20;89.20;;;;;;6194579;23;20454;-83
2023/08/07 12:31:04;;;;;;;4.78;1.63;;;19.20;89.40;;;;;;6193826;23;20005;-80
2023/08/07 12:33:30;;;;;;;4.72;1.50;;;19.10;89.50;;;;;;6192001;23;20009;-84
2023/08/07 12:35:56;;;;;;;4.53;1.75;;;19.20;89.70;;;;;;6191109;23;20069;-81
2023/08/07 12:38:22;;;;;;;4.65;1.63;;;19.10;89.50;;;;;;6190694;23;20012;-82
2023/08/07 12:40:48;;;;;;;5.20;1.80;;;19.10;89.30;;;;;;6189308;23;20347;-82
2023/08/07 12:43:13;;;;;;;5.15;1.58;;;19.10;89.30;;;;;;6189350;23;20001;-80
2023/08/07 12:45:39;;;;;;;4.47;1.50;;;19.10;89.70;;;;;;6189636;23;20321;-80
2023/08/07 12:48:05;;;;;;;3.40;1.60;;;19.00;89.30;;;;;;6191447;23;20005;-80
2023/08/07 12:50:30;;;;;;;3.38;1.55;;;19.00;89.40;;;;;;6188819;23;20012;-84